KOVS

Details ICAO KOVS
Name Boscobel
Region United States
Timezone America/Chicago (UTC-5.0)
Plans Departing 0
Arriving 2
Stats Elevation 672 ft / 205 m (AMSL)
Location 43.160392° -90.674634°
Runways 2
Magnetic Variation 1.713° W
Sunrise 2018-05-21 10:34:42 UTC / 2018-05-21 05:34:42 Local
Sunset 2018-05-22 01:26:46 UTC / 2018-05-21 20:26:46 Local
Advertisement - Login to hide

Runways

ID Width Length Bearing (true) Bearing (mag) Surface Threshold Offset Overrun Length
02 58 ft / 18 m 3,663 ft / 1,117 m 16.84° 18.55° Asphalt 0 ft / 0 m 0 ft / 0 m
07 75 ft / 23 m 4,990 ft / 1,521 m 66.99° 68.70° Asphalt 0 ft / 0 m 0 ft / 0 m
20 58 ft / 18 m 3,663 ft / 1,117 m 196.84° 198.55° Asphalt 0 ft / 0 m 0 ft / 0 m
25 75 ft / 23 m 4,990 ft / 1,521 m 247.00° 248.71° Asphalt 0 ft / 0 m 0 ft / 0 m

Map

Weather


0- 5 10 15 20 25 30 35+ Temperature / ° C

Clouds and Precipitation
Forecast for 2018-05-21 18:00 UTC. Updated 2 hours ago

Ground ~20,000 ft ~40,000 ft Winds

METAR

KOVS 211853Z AUTO 06003KT 10SM OVC007 14/13 A3005 RMK AO2 RAE03 CIG 005V011 SLP177 P0000 T01440133

TAF

Not found

Frequencies

Recorded 126.77 MHz ASOS
Unicom 122.80 MHz CTAF/UNICOM
Warning: Do not use this data for real-world aviation or navigation. No guarantee of current accuracy is given.